Time;durP1;ratioP1;P1;durP2;ratioP2;P2;SDS_P1;SDS_P2;PMS_P1;PMS_P2;Temp;Humidity;BMP_temperature;BMP_pressure;BME280_temperature;BME280_humidity;BME280_pressure;Samples;Min_cycle;Max_cycle;Signal;HPM_P1;HPM_P2
2021/11/07 00:01:39;;;;;;;0.97;0.90;;;11.00;77.30;;;;;;5088467;28;20626;-71
2021/11/07 00:06:57;;;;;;;0.70;0.70;;;11.10;77.80;;;;;;5102683;28;20293;-71
2021/11/07 00:11:57;;;;;;;1.03;0.93;;;11.10;78.00;;;;;;5102985;28;20267;-71
2021/11/07 00:14:25;;;;;;;0.77;0.77;;;11.10;78.00;;;;;;5096696;28;20212;-71
2021/11/07 00:16:54;;;;;;;1.07;0.87;;;11.10;78.00;;;;;;5106399;28;20247;-71
2021/11/07 00:19:42;;;;;;;2.80;1.60;;;11.20;78.20;;;;;;5102532;28;20219;-71
2021/11/07 00:22:28;;;;;;;2.00;1.60;;;11.20;78.20;;;;;;5087285;28;20232;-71
2021/11/07 00:25:15;;;;;;;0.60;0.60;;;11.20;78.10;;;;;;5090244;28;20208;-70
2021/11/07 00:27:52;;;;;;;0.40;0.40;;;11.20;78.10;;;;;;5104981;28;20287;-70
2021/11/07 00:30:38;;;;;;;1.33;1.30;;;11.10;78.20;;;;;;5089673;28;20240;-70
2021/11/07 00:38:22;;;;;;;1.20;0.90;;;11.10;78.60;;;;;;5100259;28;20217;-71
2021/11/07 00:41:12;;;;;;;1.37;0.93;;;11.10;78.50;;;;;;5101258;28;20253;-70
2021/11/07 00:43:47;;;;;;;2.10;1.90;;;11.00;78.60;;;;;;5113526;28;20236;-70
2021/11/07 00:48:59;;;;;;;0.67;0.67;;;10.90;78.70;;;;;;5112030;28;20246;-70
2021/11/07 00:51:32;;;;;;;2.73;1.37;;;10.90;79.00;;;;;;5106619;28;20568;-70
2021/11/07 00:59:04;;;;;;;0.70;0.70;;;10.70;79.60;;;;;;5109018;28;20248;-70
2021/11/07 01:01:37;;;;;;;1.40;1.37;;;10.60;79.60;;;;;;5089065;28;20208;-70
2021/11/07 01:04:05;;;;;;;3.60;2.00;;;10.60;79.30;;;;;;5103521;28;20633;-70
2021/11/07 01:06:34;;;;;;;1.87;1.77;;;10.70;78.70;;;;;;5107122;28;20217;-70
2021/11/07 01:09:03;;;;;;;1.93;1.83;;;10.60;77.90;;;;;;5104464;28;20626;-70
2021/11/07 01:11:30;;;;;;;0.83;0.83;;;10.70;77.40;;;;;;5092962;28;20227;-70
2021/11/07 01:13:58;;;;;;;0.50;0.50;;;10.70;77.00;;;;;;5102421;28;20278;-70
2021/11/07 01:16:25;;;;;;;2.20;1.77;;;10.70;76.50;;;;;;5104396;28;20217;-70
2021/11/07 01:18:52;;;;;;;0.67;0.67;;;10.80;76.80;;;;;;5089396;28;20209;-70
2021/11/07 01:21:19;;;;;;;0.90;0.90;;;10.90;77.10;;;;;;5096575;28;20218;-70
2021/11/07 01:24:01;;;;;;;2.30;2.10;;;10.90;77.30;;;;;;5101141;28;20225;-70
2021/11/07 01:26:34;;;;;;;0.70;0.70;;;10.90;77.40;;;;;;5102732;28;20201;-70
2021/11/07 01:29:13;;;;;;;0.63;0.63;;;10.90;77.60;;;;;;5086891;28;20235;-71
2021/11/07 01:31:41;;;;;;;2.23;2.03;;;11.00;77.70;;;;;;5090969;28;20222;-71
2021/11/07 01:34:16;;;;;;;5.33;2.47;;;11.00;77.80;;;;;;5108458;28;20286;-71
2021/11/07 01:36:49;;;;;;;1.67;1.60;;;11.00;78.00;;;;;;5102006;28;20203;-70
2021/11/07 01:39:35;;;;;;;3.77;3.47;;;11.00;78.20;;;;;;5105106;28;20523;-70
2021/11/07 01:42:09;;;;;;;1.53;1.43;;;11.00;78.30;;;;;;5097809;28;20240;-70
2021/11/07 01:44:49;;;;;;;1.47;1.37;;;11.00;78.50;;;;;;5100078;28;20217;-70
2021/11/07 01:47:17;;;;;;;0.70;0.70;;;11.00;78.60;;;;;;5089137;28;20220;-71
2021/11/07 01:49:46;;;;;;;6.70;1.60;;;11.00;78.70;;;;;;5102619;28;20223;-71
2021/11/07 01:52:15;;;;;;;0.57;0.57;;;11.00;78.80;;;;;;5082594;28;20282;-70
2021/11/07 01:54:52;;;;;;;0.90;0.90;;;11.00;79.00;;;;;;5104041;28;20205;-71
2021/11/07 01:57:26;;;;;;;0.97;0.97;;;10.90;79.10;;;;;;5100480;28;20240;-71
2021/11/07 02:00:26;;;;;;;1.03;1.00;;;10.90;79.20;;;;;;5105497;28;20215;-71
2021/11/07 02:02:53;;;;;;;0.80;0.80;;;10.90;79.10;;;;;;5102608;28;20236;-70
2021/11/07 02:05:21;;;;;;;0.23;0.23;;;10.90;78.40;;;;;;5086022;28;20212;-70
2021/11/07 02:08:06;;;;;;;1.73;1.63;;;10.80;78.10;;;;;;5095921;28;20662;-70
2021/11/07 02:10:34;;;;;;;0.97;0.97;;;10.80;78.10;;;;;;5086780;28;20208;-70
2021/11/07 02:13:02;;;;;;;0.93;0.93;;;10.80;78.40;;;;;;5099088;28;20669;-70
2021/11/07 02:15:30;;;;;;;1.37;1.37;;;10.80;78.50;;;;;;5087587;28;20219;-70
2021/11/07 02:17:57;;;;;;;1.47;1.37;;;10.70;78.60;;;;;;5088323;28;20215;-70
2021/11/07 02:20:32;;;;;;;0.90;0.90;;;10.70;78.70;;;;;;5100719;28;20201;-71
2021/11/07 02:23:14;;;;;;;1.80;1.70;;;10.70;78.80;;;;;;5097675;28;20301;-71
2021/11/07 02:25:43;;;;;;;0.80;0.80;;;10.70;79.00;;;;;;5089433;28;20212;-71
2021/11/07 02:28:12;;;;;;;0.57;0.57;;;10.70;79.10;;;;;;5109244;28;20212;-71
2021/11/07 02:30:40;;;;;;;1.27;1.13;;;10.70;79.20;;;;;;5082553;28;20209;-71
2021/11/07 02:33:07;;;;;;;2.20;1.43;;;10.70;79.20;;;;;;5081094;28;20243;-71
2021/11/07 02:35:34;;;;;;;4.70;2.60;;;10.80;79.20;;;;;;5096343;28;20674;-71
2021/11/07 02:38:01;;;;;;;2.20;1.30;;;10.80;79.20;;;;;;5084297;28;20204;-71
2021/11/07 02:40:28;;;;;;;0.73;0.73;;;10.80;79.20;;;;;;5092224;28;20212;-71
2021/11/07 02:42:56;;;;;;;2.47;1.97;;;10.80;79.10;;;;;;5088416;28;20251;-71
2021/11/07 02:45:23;;;;;;;1.03;1.03;;;10.80;79.00;;;;;;5087225;28;20224;-71
2021/11/07 02:47:51;;;;;;;0.50;0.50;;;10.80;79.00;;;;;;5104157;28;20342;-71
2021/11/07 02:50:20;;;;;;;1.43;1.33;;;10.80;79.00;;;;;;5085620;28;20212;-71
2021/11/07 02:52:48;;;;;;;1.50;0.93;;;10.80;78.90;;;;;;5102871;28;20273;-71
2021/11/07 02:55:17;;;;;;;2.50;2.17;;;10.80;79.00;;;;;;5106285;28;20260;-70
2021/11/07 02:57:47;;;;;;;0.67;0.67;;;10.80;79.20;;;;;;5105023;28;20217;-70
2021/11/07 03:00:17;;;;;;;2.87;2.03;;;10.70;79.10;;;;;;5105235;28;20606;-70
2021/11/07 03:02:44;;;;;;;0.53;0.53;;;10.70;79.20;;;;;;5085037;28;20274;-70
2021/11/07 03:05:12;;;;;;;1.97;1.50;;;10.80;79.40;;;;;;5098733;28;20217;-70
2021/11/07 03:07:43;;;;;;;3.40;2.43;;;10.80;79.50;;;;;;5085430;28;20204;-70
2021/11/07 03:10:12;;;;;;;0.53;0.53;;;10.80;79.50;;;;;;5102835;28;20514;-70
2021/11/07 03:12:39;;;;;;;0.60;0.60;;;10.80;79.60;;;;;;5100113;28;20220;-71
2021/11/07 03:15:09;;;;;;;1.53;1.53;;;10.70;79.60;;;;;;5098915;28;20223;-71
2021/11/07 03:17:36;;;;;;;1.90;1.80;;;10.70;79.80;;;;;;5100266;28;20208;-71
2021/11/07 03:20:05;;;;;;;2.20;1.70;;;10.70;79.90;;;;;;5106349;28;20267;-71
2021/11/07 03:22:32;;;;;;;1.47;1.40;;;10.70;79.90;;;;;;5108145;28;20215;-71
2021/11/07 03:25:01;;;;;;;2.77;2.07;;;10.70;79.90;;;;;;5101193;28;20205;-71
2021/11/07 03:27:41;;;;;;;1.73;1.63;;;10.70;80.00;;;;;;5086753;28;20287;-71
2021/11/07 03:33:19;;;;;;;1.07;1.07;;;10.70;80.10;;;;;;5094504;28;20704;-70
2021/11/07 03:35:47;;;;;;;0.77;0.73;;;10.70;80.40;;;;;;5098394;28;20280;-70
2021/11/07 03:38:15;;;;;;;2.03;1.23;;;10.70;80.50;;;;;;5116940;28;20212;-70
2021/11/07 03:40:42;;;;;;;0.77;0.77;;;10.70;80.60;;;;;;5078937;28;20666;-70
2021/11/07 03:43:09;;;;;;;1.17;1.10;;;10.60;80.70;;;;;;5082080;28;20291;-70
2021/11/07 03:45:37;;;;;;;1.27;0.50;;;10.60;80.90;;;;;;5081573;28;20627;-71
2021/11/07 03:48:05;;;;;;;1.43;1.33;;;10.70;81.00;;;;;;5082645;28;20209;-71
2021/11/07 03:50:33;;;;;;;0.90;0.90;;;10.60;81.20;;;;;;5084895;28;20220;-71
2021/11/07 03:53:00;;;;;;;2.33;1.40;;;10.70;81.40;;;;;;5092336;28;20205;-71
2021/11/07 03:55:28;;;;;;;12.93;2.10;;;10.60;81.40;;;;;;5090947;28;20235;-71
2021/11/07 03:57:55;;;;;;;2.10;1.27;;;10.60;81.50;;;;;;5090704;28;20270;-71
2021/11/07 04:00:23;;;;;;;1.07;1.07;;;10.60;81.60;;;;;;5086945;28;20216;-70
2021/11/07 04:02:51;;;;;;;1.50;1.40;;;10.60;81.70;;;;;;5081693;28;20214;-70
2021/11/07 04:05:19;;;;;;;1.33;1.33;;;10.60;81.70;;;;;;5088107;28;20215;-70
2021/11/07 04:07:46;;;;;;;4.27;0.63;;;10.60;81.70;;;;;;5088080;28;20264;-70
2021/11/07 04:10:14;;;;;;;1.27;1.20;;;10.50;81.70;;;;;;5089217;28;20214;-70
2021/11/07 04:12:41;;;;;;;1.50;1.40;;;10.50;81.70;;;;;;5084714;28;20626;-70
2021/11/07 04:15:10;;;;;;;0.83;0.83;;;10.50;81.80;;;;;;5086651;28;20252;-70
2021/11/07 04:17:38;;;;;;;0.80;0.80;;;10.50;81.60;;;;;;5089846;28;20213;-70
2021/11/07 04:20:07;;;;;;;1.20;1.20;;;10.40;81.00;;;;;;5088621;28;20213;-70
2021/11/07 04:22:34;;;;;;;0.80;0.80;;;10.40;80.90;;;;;;5091707;28;20224;-70
2021/11/07 04:25:01;;;;;;;1.33;1.30;;;10.40;80.60;;;;;;5090893;28;20245;-70
2021/11/07 04:27:28;;;;;;;1.10;1.07;;;10.40;80.40;;;;;;5081258;28;20209;-70
2021/11/07 04:29:57;;;;;;;1.97;1.10;;;10.40;79.90;;;;;;5079581;28;20277;-70
2021/11/07 04:32:25;;;;;;;0.80;0.80;;;10.30;79.50;;;;;;5082390;28;20236;-71
2021/11/07 04:34:52;;;;;;;0.80;0.80;;;10.30;79.00;;;;;;5088799;28;20213;-70
2021/11/07 04:37:21;;;;;;;2.13;1.93;;;10.30;79.20;;;;;;5066981;28;20213;-70
2021/11/07 04:39:48;;;;;;;0.67;0.67;;;10.30;79.30;;;;;;5096451;28;20313;-70
2021/11/07 04:42:15;;;;;;;0.47;0.47;;;10.20;79.40;;;;;;5098579;28;20302;-70
2021/11/07 04:44:42;;;;;;;2.50;1.57;;;10.20;79.60;;;;;;5091579;28;20294;-70
2021/11/07 04:47:10;;;;;;;1.27;1.07;;;10.20;79.80;;;;;;5097741;28;20216;-70
2021/11/07 04:49:37;;;;;;;0.30;0.30;;;10.20;79.80;;;;;;5109671;28;20216;-70
2021/11/07 04:52:04;;;;;;;1.43;1.33;;;10.30;79.90;;;;;;5114363;28;20278;-70
2021/11/07 04:54:31;;;;;;;1.33;1.13;;;10.30;80.10;;;;;;5100283;28;20266;-70
2021/11/07 04:56:59;;;;;;;24.03;1.93;;;10.20;80.00;;;;;;5084577;28;20665;-70
2021/11/07 04:59:26;;;;;;;0.23;0.23;;;10.30;80.20;;;;;;5106146;28;20216;-70
2021/11/07 05:01:55;;;;;;;0.53;0.53;;;10.20;80.30;;;;;;5104694;28;20228;-70
2021/11/07 05:04:22;;;;;;;0.77;0.77;;;10.20;80.30;;;;;;5089855;28;20332;-70
2021/11/07 05:06:51;;;;;;;8.30;0.80;;;10.20;80.40;;;;;;5097212;28;20213;-70
2021/11/07 05:09:18;;;;;;;6.73;4.07;;;10.20;80.50;;;;;;5086172;28;20291;-70
2021/11/07 05:11:45;;;;;;;0.50;0.50;;;10.20;81.40;;;;;;5105885;28;20673;-70
2021/11/07 05:14:13;;;;;;;2.43;0.90;;;10.10;80.90;;;;;;5087884;28;20217;-70
2021/11/07 05:16:40;;;;;;;1.23;1.23;;;10.10;80.80;;;;;;5104733;28;20231;-70
2021/11/07 05:19:07;;;;;;;3.63;1.47;;;10.00;80.70;;;;;;5089140;28;20242;-70
2021/11/07 05:21:34;;;;;;;0.83;0.83;;;10.00;80.80;;;;;;5108332;28;20284;-70
2021/11/07 05:24:01;;;;;;;0.60;0.60;;;10.00;80.80;;;;;;5089776;28;20353;-70
2021/11/07 05:26:28;;;;;;;1.07;1.07;;;10.00;80.80;;;;;;5085238;28;20208;-70
2021/11/07 05:28:56;;;;;;;1.90;1.77;;;10.00;80.80;;;;;;5103923;28;20220;-70
2021/11/07 05:31:23;;;;;;;0.37;0.37;;;10.00;80.70;;;;;;5108073;28;20214;-70
2021/11/07 05:33:51;;;;;;;1.53;1.43;;;10.00;80.70;;;;;;5104354;28;20235;-70
2021/11/07 05:36:18;;;;;;;0.60;0.60;;;10.00;80.70;;;;;;5082953;28;20335;-70
2021/11/07 05:38:45;;;;;;;0.83;0.83;;;10.00;80.80;;;;;;5083575;28;20212;-70
2021/11/07 05:41:12;;;;;;;0.90;0.90;;;9.90;80.90;;;;;;5105304;28;20618;-70
2021/11/07 05:43:41;;;;;;;0.83;0.83;;;10.00;81.00;;;;;;5110776;28;20552;-70
2021/11/07 05:46:08;;;;;;;0.87;0.87;;;10.00;80.90;;;;;;5103319;28;20213;-70
2021/11/07 05:48:39;;;;;;;2.00;1.80;;;10.00;81.10;;;;;;5080716;28;20645;-71
2021/11/07 05:51:07;;;;;;;0.67;0.67;;;10.00;81.20;;;;;;5097759;28;20205;-71
2021/11/07 05:53:34;;;;;;;0.63;0.63;;;9.90;81.30;;;;;;5115684;28;20213;-71
2021/11/07 05:56:01;;;;;;;0.67;0.67;;;10.00;81.40;;;;;;5090122;28;20271;-71
2021/11/07 05:58:28;;;;;;;1.60;1.50;;;10.00;81.60;;;;;;5093874;28;20223;-70
2021/11/07 06:00:56;;;;;;;8.27;3.60;;;9.90;81.60;;;;;;5091496;28;20224;-70
2021/11/07 06:03:23;;;;;;;18.53;12.03;;;10.00;81.80;;;;;;5099552;28;20223;-70
2021/11/07 06:05:51;;;;;;;6.17;5.43;;;9.90;81.80;;;;;;5092000;28;20235;-70
2021/11/07 06:08:18;;;;;;;23.07;7.73;;;9.90;82.00;;;;;;5098837;28;20232;-71
2021/11/07 06:10:46;;;;;;;16.20;6.30;;;9.90;82.10;;;;;;5107512;28;21513;-71
2021/11/07 06:13:13;;;;;;;4.67;4.37;;;9.90;82.30;;;;;;5088695;28;20278;-71
2021/11/07 06:15:41;;;;;;;1.70;1.60;;;9.90;82.30;;;;;;5100919;28;20216;-70
2021/11/07 06:18:08;;;;;;;7.73;2.97;;;10.00;82.50;;;;;;5085035;28;20583;-71
2021/11/07 06:20:35;;;;;;;3.03;2.83;;;10.00;82.50;;;;;;5086331;28;20700;-70
2021/11/07 06:23:04;;;;;;;2.83;2.20;;;10.00;82.40;;;;;;5106096;28;20261;-70
2021/11/07 06:25:32;;;;;;;11.97;1.57;;;10.00;82.40;;;;;;5106996;28;20240;-71
2021/11/07 06:27:59;;;;;;;3.77;2.23;;;10.00;82.50;;;;;;5098212;28;20201;-71
2021/11/07 06:30:27;;;;;;;2.90;1.70;;;10.00;82.50;;;;;;5102766;28;20211;-70
2021/11/07 06:32:55;;;;;;;1.90;1.80;;;10.10;82.50;;;;;;5105676;28;20213;-71
2021/11/07 06:35:22;;;;;;;0.57;0.57;;;10.00;82.50;;;;;;5087550;28;20216;-71
2021/11/07 06:37:50;;;;;;;1.37;1.10;;;10.10;82.50;;;;;;5104824;28;20303;-71
2021/11/07 06:40:17;;;;;;;1.50;1.50;;;10.20;82.40;;;;;;5089262;28;20222;-71
2021/11/07 06:42:44;;;;;;;1.17;1.17;;;10.20;82.20;;;;;;5103449;28;20239;-71
2021/11/07 06:45:17;;;;;;;0.80;0.80;;;10.30;82.10;;;;;;5101096;28;20327;-70
2021/11/07 06:47:45;;;;;;;0.60;0.60;;;10.30;82.10;;;;;;5091422;28;20301;-71
2021/11/07 06:50:12;;;;;;;1.73;1.63;;;10.40;82.00;;;;;;5110131;28;20208;-71
2021/11/07 06:52:41;;;;;;;4.07;1.83;;;10.40;82.00;;;;;;5104775;28;20220;-70
2021/11/07 06:55:08;;;;;;;0.73;0.63;;;10.40;81.90;;;;;;5112312;28;20216;-70
2021/11/07 06:57:35;;;;;;;1.17;1.10;;;10.50;81.90;;;;;;5112661;28;20295;-71
2021/11/07 07:00:07;;;;;;;0.33;0.33;;;10.40;81.90;;;;;;5097201;28;20217;-71
2021/11/07 07:02:35;;;;;;;2.00;1.27;;;10.40;82.00;;;;;;5079069;28;20299;-70
2021/11/07 07:05:03;;;;;;;2.63;1.63;;;10.50;82.00;;;;;;5080958;28;20783;-71
2021/11/07 07:07:34;;;;;;;0.83;0.70;;;10.60;81.90;;;;;;5084813;28;20219;-71
2021/11/07 07:10:04;;;;;;;0.53;0.53;;;10.70;81.70;;;;;;5085508;28;20204;-71
2021/11/07 07:12:43;;;;;;;0.47;0.47;;;10.80;81.40;;;;;;5109433;28;20209;-71
2021/11/07 07:15:32;;;;;;;1.90;1.80;;;10.90;81.20;;;;;;5082774;28;20208;-72
2021/11/07 07:18:17;;;;;;;2.13;1.30;;;10.90;80.90;;;;;;5087887;28;20216;-71
2021/11/07 07:24:12;;;;;;;0.70;0.70;;;11.10;80.60;;;;;;5103008;28;20204;-71
2021/11/07 07:34:26;;;;;;;3.40;1.63;;;11.40;80.00;;;;;;5102907;28;20209;-70
2021/11/07 07:36:54;;;;;;;0.43;0.43;;;11.50;79.60;;;;;;5083967;28;20219;-70
2021/11/07 07:39:22;;;;;;;3.73;1.17;;;11.60;79.10;;;;;;5087782;28;20216;-70
2021/11/07 07:41:49;;;;;;;0.40;0.40;;;11.80;78.70;;;;;;5086626;28;20327;-70
2021/11/07 07:44:17;;;;;;;2.00;1.90;;;12.00;78.20;;;;;;5084073;28;20237;-70
2021/11/07 07:46:45;;;;;;;0.87;0.87;;;12.10;77.70;;;;;;5066861;28;20216;-71
2021/11/07 07:49:16;;;;;;;0.70;0.70;;;12.30;77.60;;;;;;5083555;28;20224;-71
2021/11/07 07:51:45;;;;;;;2.00;1.37;;;12.40;77.30;;;;;;5086699;28;20209;-71
2021/11/07 07:54:12;;;;;;;2.03;1.53;;;12.50;77.00;;;;;;5067793;28;20275;-71
2021/11/07 07:56:41;;;;;;;0.87;0.87;;;12.50;76.60;;;;;;5068678;28;20271;-71
2021/11/07 07:59:08;;;;;;;0.83;0.83;;;12.40;75.90;;;;;;5084632;28;20229;-71
2021/11/07 08:01:35;;;;;;;0.40;0.40;;;12.30;75.30;;;;;;5079148;28;20221;-71
2021/11/07 08:04:03;;;;;;;0.60;0.60;;;12.20;74.80;;;;;;5061075;28;20548;-71
2021/11/07 08:06:30;;;;;;;0.40;0.40;;;12.00;74.90;;;;;;5078505;28;20280;-71
2021/11/07 08:08:57;;;;;;;1.27;1.27;;;11.80;75.00;;;;;;5081435;28;20284;-71
2021/11/07 08:11:24;;;;;;;2.73;1.50;;;11.70;75.40;;;;;;5091514;28;20247;-72
2021/11/07 08:13:53;;;;;;;0.40;0.40;;;11.70;76.00;;;;;;5079614;28;20217;-71
2021/11/07 08:16:24;;;;;;;0.33;0.33;;;11.80;76.40;;;;;;5092514;28;20244;-71
2021/11/07 08:18:53;;;;;;;0.50;0.50;;;11.80;76.60;;;;;;5074394;28;20300;-71
2021/11/07 08:21:21;;;;;;;1.80;1.70;;;11.80;76.70;;;;;;5075758;28;20213;-71
2021/11/07 08:23:49;;;;;;;1.30;1.20;;;11.90;76.80;;;;;;5070890;28;20741;-71
2021/11/07 08:26:17;;;;;;;0.83;0.30;;;12.00;76.90;;;;;;5059305;28;20241;-71
2021/11/07 08:28:46;;;;;;;0.57;0.57;;;12.00;77.00;;;;;;5079203;28;20221;-71
2021/11/07 08:31:32;;;;;;;0.43;0.43;;;12.10;77.00;;;;;;5089859;28;20206;-71
2021/11/07 08:34:01;;;;;;;1.13;1.13;;;12.20;76.90;;;;;;5072763;28;20208;-71
2021/11/07 08:39:56;;;;;;;1.20;1.20;;;12.30;76.60;;;;;;5092290;28;20217;-71
2021/11/07 08:42:05;;;;;;;0.77;0.77;;;12.30;76.70;;;;;;5085238;28;20287;-71
2021/11/07 09:01:27;;;;;;;0.90;0.90;;;12.40;76.30;;;;;;5105538;28;20201;-71
2021/11/07 09:04:06;;;;;;;5.40;1.60;;;12.50;76.20;;;;;;5090705;28;20281;-71
2021/11/07 09:09:14;;;;;;;0.33;0.33;;;12.50;76.20;;;;;;5103875;28;20649;-71
2021/11/07 09:11:52;;;;;;;1.57;1.27;;;12.50;76.20;;;;;;5111217;28;20213;-71
2021/11/07 09:14:23;;;;;;;0.30;0.30;;;12.50;76.10;;;;;;5093509;28;20292;-71
2021/11/07 09:16:53;;;;;;;5.93;1.33;;;12.60;76.20;;;;;;5084682;28;20223;-71
2021/11/07 09:19:23;;;;;;;2.10;1.20;;;12.60;76.20;;;;;;5099294;28;20208;-71
2021/11/07 09:21:57;;;;;;;0.70;0.70;;;12.60;76.00;;;;;;5096014;28;20220;-72
2021/11/07 09:25:11;;;;;;;1.80;1.47;;;12.60;75.70;;;;;;5098989;28;20216;-71
2021/11/07 09:27:42;;;;;;;0.87;0.87;;;12.60;75.50;;;;;;5090783;28;20288;-71
2021/11/07 09:30:16;;;;;;;6.37;1.37;;;12.60;75.10;;;;;;5079591;28;20213;-71
2021/11/07 09:36:15;;;;;;;0.40;0.40;;;12.60;75.00;;;;;;5103247;28;20513;-71
2021/11/07 09:38:24;;;;;;;1.33;1.23;;;12.60;74.90;;;;;;5090873;28;20208;-72
2021/11/07 09:49:44;;;;;;;0.53;0.53;;;12.60;72.80;;;;;;4995096;28;20327;-71
2021/11/07 09:52:17;;;;;;;1.13;1.13;;;12.50;72.60;;;;;;4980662;28;20664;-71
2021/11/07 09:54:48;;;;;;;1.20;1.10;;;12.40;72.70;;;;;;5060347;28;20650;-71
2021/11/07 09:57:20;;;;;;;0.93;0.93;;;12.40;73.40;;;;;;5089083;28;20639;-71
2021/11/07 09:59:56;;;;;;;1.30;1.20;;;12.40;73.80;;;;;;5077983;28;20217;-71
2021/11/07 10:02:28;;;;;;;0.70;0.50;;;12.50;73.90;;;;;;5091123;28;20212;-71
2021/11/07 10:04:58;;;;;;;1.47;1.40;;;12.50;73.90;;;;;;5076913;28;20225;-71
2021/11/07 10:07:31;;;;;;;0.20;0.20;;;12.60;73.90;;;;;;5095771;28;20543;-71
2021/11/07 10:10:08;;;;;;;1.27;1.00;;;12.60;73.70;;;;;;5092502;28;20209;-71
2021/11/07 10:15:11;;;;;;;0.63;0.63;;;12.80;73.50;;;;;;5095696;28;20673;-72
2021/11/07 10:17:42;;;;;;;1.47;1.37;;;12.80;73.30;;;;;;5095659;28;20678;-72
2021/11/07 10:20:45;;;;;;;1.33;1.23;;;12.90;72.90;;;;;;5096006;28;20243;-72
2021/11/07 10:23:16;;;;;;;3.03;1.50;;;13.00;72.80;;;;;;5075579;28;20591;-71
2021/11/07 10:26:21;;;;;;;2.90;0.60;;;13.10;72.70;;;;;;5093767;28;20233;-71
2021/11/07 10:28:59;;;;;;;0.77;0.77;;;13.20;72.30;;;;;;5077401;28;20217;-71
2021/11/07 10:31:34;;;;;;;3.13;2.43;;;13.20;72.20;;;;;;5072825;28;20202;-71
2021/11/07 10:45:21;;;;;;;0.37;0.37;;;13.20;69.10;;;;;;5105069;28;20232;-72
2021/11/07 10:53:28;;;;;;;3.40;2.43;;;13.10;69.70;;;;;;5102009;28;20259;-71
2021/11/07 10:56:02;;;;;;;0.90;0.90;;;13.30;70.10;;;;;;5094951;28;20243;-71
2021/11/07 10:58:31;;;;;;;1.60;1.50;;;13.40;70.00;;;;;;5096916;28;20208;-71
2021/11/07 11:01:06;;;;;;;0.23;0.23;;;13.40;69.60;;;;;;5109097;28;20520;-71
2021/11/07 11:03:43;;;;;;;0.77;0.70;;;13.50;68.80;;;;;;5100042;28;20238;-71
2021/11/07 11:06:14;;;;;;;2.17;1.97;;;13.50;68.80;;;;;;5081217;28;20233;-71
2021/11/07 11:08:54;;;;;;;0.27;0.27;;;13.50;69.00;;;;;;5085670;28;20209;-71
2021/11/07 11:11:29;;;;;;;0.30;0.30;;;13.60;69.10;;;;;;5099610;28;20213;-71
2021/11/07 11:34:45;;;;;;;0.17;0.17;;;14.10;66.70;;;;;;5103655;28;20661;-71
2021/11/07 11:37:20;;;;;;;0.70;0.70;;;14.30;66.40;;;;;;5081340;28;20212;-71
2021/11/07 11:39:58;;;;;;;0.50;0.50;;;14.40;64.10;;;;;;5099812;28;20218;-71
2021/11/07 11:42:32;;;;;;;0.97;0.97;;;14.30;64.00;;;;;;5104081;28;20252;-71
2021/11/07 11:44:59;;;;;;;0.87;0.73;;;14.30;64.40;;;;;;5100930;28;20212;-71
2021/11/07 11:47:40;;;;;;;1.90;0.40;;;14.20;64.20;;;;;;5084915;28;20291;-71
2021/11/07 11:58:12;;;;;;;1.97;1.63;;;14.20;64.60;;;;;;5112825;28;20273;-71
2021/11/07 12:01:09;;;;;;;1.20;1.17;;;14.30;65.10;;;;;;5097454;28;20223;-71
2021/11/07 12:06:42;;;;;;;0.37;0.37;;;14.50;64.20;;;;;;5114183;28;20331;-72
2021/11/07 12:09:22;;;;;;;3.93;1.97;;;14.40;64.00;;;;;;5091487;28;20224;-71
2021/11/07 12:11:58;;;;;;;0.30;0.30;;;14.50;64.40;;;;;;5107848;28;20631;-71
2021/11/07 12:17:04;;;;;;;0.37;0.37;;;14.60;64.70;;;;;;5109237;28;20308;-71
2021/11/07 12:19:40;;;;;;;2.77;0.60;;;14.80;64.30;;;;;;5106958;28;20647;-71
2021/11/07 12:22:16;;;;;;;0.67;0.67;;;15.20;63.90;;;;;;5107928;28;20645;-71
2021/11/07 12:24:46;;;;;;;0.67;0.60;;;15.40;62.10;;;;;;5096808;28;20219;-71
2021/11/07 12:27:22;;;;;;;2.07;1.87;;;15.50;61.50;;;;;;5101402;28;20233;-71
2021/11/07 12:29:59;;;;;;;1.53;1.43;;;15.50;61.20;;;;;;5106531;28;20215;-71
2021/11/07 12:32:37;;;;;;;0.17;0.17;;;15.50;61.40;;;;;;5094071;28;20290;-71
2021/11/07 12:35:22;;;;;;;1.33;1.23;;;15.60;61.70;;;;;;5094919;28;20546;-71
2021/11/07 12:40:52;;;;;;;1.13;0.83;;;15.70;61.00;;;;;;5102410;28;20239;-71
2021/11/07 12:43:32;;;;;;;0.20;0.20;;;15.70;61.70;;;;;;5092310;28;20300;-72
2021/11/07 12:46:25;;;;;;;2.40;1.00;;;15.80;61.60;;;;;;5104928;28;20244;-72
2021/11/07 12:49:00;;;;;;;0.67;0.67;;;15.80;61.50;;;;;;5107970;28;20251;-71
2021/11/07 12:51:30;;;;;;;0.77;0.73;;;15.80;61.50;;;;;;5103160;28;20213;-71
2021/11/07 12:54:07;;;;;;;0.30;0.30;;;15.80;61.90;;;;;;5093203;28;20619;-71
2021/11/07 12:56:54;;;;;;;1.53;0.63;;;15.80;62.20;;;;;;5106363;28;20216;-71
2021/11/07 12:59:38;;;;;;;0.87;0.70;;;15.80;61.30;;;;;;5090653;28;20217;-71
2021/11/07 13:02:17;;;;;;;2.47;0.83;;;15.80;60.80;;;;;;5101673;28;20220;-71
2021/11/07 13:05:16;;;;;;;0.30;0.30;;;15.80;60.60;;;;;;5110382;28;20664;-71
2021/11/07 13:07:56;;;;;;;0.37;0.37;;;15.70;60.60;;;;;;5098263;28;20631;-71
2021/11/07 13:13:06;;;;;;;0.27;0.27;;;15.70;59.90;;;;;;5102796;28;20266;-72
2021/11/07 13:18:13;;;;;;;0.20;0.20;;;15.70;60.60;;;;;;5106979;28;20224;-72
2021/11/07 13:26:49;;;;;;;0.60;0.60;;;15.80;60.60;;;;;;5104591;28;20545;-72
2021/11/07 13:32:13;;;;;;;1.63;1.10;;;15.80;60.80;;;;;;5114502;28;20235;-72
2021/11/07 13:35:03;;;;;;;0.30;0.30;;;15.70;59.20;;;;;;5106267;28;20237;-72
2021/11/07 13:37:40;;;;;;;0.33;0.33;;;15.60;60.20;;;;;;5100310;28;20236;-71
2021/11/07 13:40:22;;;;;;;0.73;0.73;;;15.70;60.70;;;;;;5108627;28;20244;-72
2021/11/07 13:42:51;;;;;;;0.43;0.43;;;15.70;60.60;;;;;;5101877;28;20212;-71
2021/11/07 13:45:30;;;;;;;1.50;0.97;;;15.80;60.00;;;;;;5100006;28;20213;-72
2021/11/07 13:48:01;;;;;;;0.20;0.20;;;15.70;59.50;;;;;;5106249;28;20602;-72
2021/11/07 13:50:33;;;;;;;0.17;0.17;;;15.60;59.70;;;;;;5107847;28;20227;-71
2021/11/07 13:53:02;;;;;;;0.10;0.10;;;15.50;59.40;;;;;;5099201;28;20650;-71
2021/11/07 13:55:32;;;;;;;0.57;0.57;;;15.40;59.40;;;;;;5097271;28;20212;-71
2021/11/07 13:58:12;;;;;;;0.47;0.47;;;15.30;60.20;;;;;;5093410;28;20286;-71
2021/11/07 14:00:40;;;;;;;0.83;0.60;;;15.20;60.50;;;;;;5086086;28;20211;-71
2021/11/07 14:03:14;;;;;;;0.57;0.57;;;15.20;60.80;;;;;;5091996;28;20217;-71
2021/11/07 14:08:50;;;;;;;0.40;0.40;;;15.20;60.50;;;;;;5108640;28;20216;-71
2021/11/07 14:11:19;;;;;;;0.23;0.23;;;15.20;59.00;;;;;;5101201;28;20239;-71
2021/11/07 14:13:53;;;;;;;0.10;0.10;;;15.10;59.00;;;;;;5105196;28;20207;-71
2021/11/07 14:16:42;;;;;;;0.30;0.30;;;15.00;59.30;;;;;;5081335;28;20217;-72
2021/11/07 14:19:11;;;;;;;0.30;0.30;;;15.00;59.90;;;;;;5088062;28;20223;-71
2021/11/07 14:21:42;;;;;;;0.40;0.40;;;15.00;59.70;;;;;;5098715;28;20275;-71
2021/11/07 14:24:25;;;;;;;0.67;0.67;;;14.90;60.10;;;;;;5087723;28;20239;-71
2021/11/07 14:27:19;;;;;;;0.50;0.50;;;14.80;59.90;;;;;;5098663;28;20229;-72
2021/11/07 14:29:43;;;;;;;0.33;0.33;;;14.70;59.80;;;;;;5112808;28;20654;-72
2021/11/07 14:35:06;;;;;;;0.93;0.90;;;14.60;60.30;;;;;;5110529;28;20246;-71
2021/11/07 14:40:15;;;;;;;0.57;0.57;;;14.50;61.00;;;;;;5110559;28;20503;-71
2021/11/07 14:43:05;;;;;;;0.20;0.20;;;14.50;60.60;;;;;;5114293;28;20287;-71
2021/11/07 14:46:21;;;;;;;1.10;1.10;;;14.40;59.60;;;;;;5099136;28;20224;-71
2021/11/07 14:48:56;;;;;;;2.10;0.50;;;14.40;60.10;;;;;;5101837;28;20259;-71
2021/11/07 14:51:43;;;;;;;0.40;0.40;;;14.30;61.00;;;;;;5101894;28;20654;-71
2021/11/07 14:59:31;;;;;;;2.53;0.93;;;14.10;61.20;;;;;;5101419;28;20213;-72
2021/11/07 15:02:24;;;;;;;1.37;1.27;;;14.10;61.40;;;;;;5103484;28;20211;-72
2021/11/07 15:05:04;;;;;;;3.50;2.20;;;14.00;62.10;;;;;;5096990;28;20213;-72
2021/11/07 15:07:46;;;;;;;0.60;0.60;;;13.90;62.50;;;;;;5087071;28;20226;-72
2021/11/07 15:13:04;;;;;;;0.70;0.70;;;13.90;63.10;;;;;;5102623;28;20217;-72
2021/11/07 15:18:16;;;;;;;0.37;0.37;;;13.90;63.60;;;;;;5100298;28;20201;-72
2021/11/07 15:21:00;;;;;;;0.63;0.63;;;13.80;63.60;;;;;;5088855;28;20223;-72
2021/11/07 15:23:34;;;;;;;0.30;0.30;;;13.80;63.70;;;;;;5091868;28;20209;-72
2021/11/07 15:26:32;;;;;;;0.33;0.33;;;13.80;63.90;;;;;;5082088;28;20254;-72
2021/11/07 15:29:07;;;;;;;0.90;0.73;;;13.80;64.30;;;;;;5098531;28;20638;-72
2021/11/07 15:31:35;;;;;;;1.10;1.10;;;13.80;64.70;;;;;;5095075;28;20209;-72
2021/11/07 15:34:09;;;;;;;1.50;0.47;;;13.80;65.10;;;;;;5097559;28;20213;-72
2021/11/07 15:36:44;;;;;;;1.40;0.97;;;13.70;65.20;;;;;;5104509;28;20224;-72
2021/11/07 15:39:20;;;;;;;0.93;0.60;;;13.70;65.30;;;;;;5099961;28;20223;-72
2021/11/07 15:42:11;;;;;;;0.10;0.10;;;13.70;65.60;;;;;;5103310;28;20297;-72
2021/11/07 15:44:56;;;;;;;0.23;0.23;;;13.70;65.80;;;;;;5110591;28;20209;-72
2021/11/07 15:47:29;;;;;;;0.70;0.70;;;13.70;66.00;;;;;;5101334;28;20243;-72
2021/11/07 15:55:14;;;;;;;1.43;1.33;;;13.50;66.90;;;;;;5097278;28;20255;-72
2021/11/07 16:00:55;;;;;;;0.63;0.53;;;13.40;67.60;;;;;;5051406;28;20690;-71